createdAt,value
2023-03-12T00:00:24.308Z,989.60
2023-03-12T00:01:24.303Z,989.52
2023-03-12T00:02:24.318Z,989.55
2023-03-12T00:03:24.399Z,989.59
2023-03-12T00:04:24.282Z,989.56
2023-03-12T00:05:24.272Z,989.60
2023-03-12T00:06:24.256Z,989.61
2023-03-12T00:07:24.258Z,989.64
2023-03-12T00:08:24.272Z,989.61
2023-03-12T00:09:24.232Z,989.60
2023-03-12T00:10:24.235Z,989.64
2023-03-12T00:11:24.223Z,989.63
2023-03-12T00:12:24.227Z,989.67
2023-03-12T00:13:24.231Z,989.64
2023-03-12T00:14:24.196Z,989.70
2023-03-12T00:15:24.196Z,989.69
2023-03-12T00:16:24.249Z,989.75
2023-03-12T00:17:24.176Z,989.72
2023-03-12T00:18:24.202Z,989.70
2023-03-12T00:19:24.169Z,989.70
2023-03-12T00:20:24.159Z,989.71
2023-03-12T00:21:24.145Z,989.74
2023-03-12T00:22:24.142Z,989.68
2023-03-12T00:23:24.154Z,989.64
2023-03-12T00:24:24.151Z,989.67
2023-03-12T00:25:24.126Z,989.66
2023-03-12T00:26:24.112Z,989.65
2023-03-12T00:27:24.106Z,989.67
2023-03-12T00:28:24.119Z,989.72
2023-03-12T00:29:24.089Z,989.70
2023-03-12T00:30:24.087Z,989.64
2023-03-12T00:31:24.140Z,989.67
2023-03-12T00:32:24.111Z,989.73
2023-03-12T00:33:24.090Z,989.73
2023-03-12T00:34:24.046Z,989.76
2023-03-12T00:35:24.143Z,989.74
2023-03-12T00:36:24.023Z,989.72
2023-03-12T00:37:24.015Z,989.84
2023-03-12T00:38:24.049Z,989.77
2023-03-12T00:39:24.026Z,989.82
2023-03-12T00:40:23.996Z,989.80
2023-03-12T00:41:23.993Z,989.84
2023-03-12T00:42:23.985Z,989.80
2023-03-12T00:43:23.999Z,989.80
2023-03-12T00:44:23.966Z,989.76
2023-03-12T00:45:23.959Z,989.76
2023-03-12T00:46:23.983Z,989.78
2023-03-12T00:47:23.971Z,989.74
2023-03-12T00:48:23.972Z,989.68
2023-03-12T00:49:23.929Z,989.73
2023-03-12T00:50:23.921Z,989.73
2023-03-12T00:51:23.922Z,989.68
2023-03-12T00:52:23.917Z,989.66
2023-03-12T00:53:23.932Z,989.67
2023-03-12T00:54:23.898Z,989.65
2023-03-12T00:55:23.900Z,989.61
2023-03-12T00:56:23.883Z,989.71
2023-03-12T00:57:23.882Z,989.74
2023-03-12T00:58:23.892Z,989.73
2023-03-12T00:59:23.861Z,989.65
2023-03-12T01:00:23.936Z,989.68
2023-03-12T01:01:23.866Z,989.67
2023-03-12T01:02:23.834Z,989.60
2023-03-12T01:03:23.871Z,989.70
2023-03-12T01:04:23.932Z,989.61
2023-03-12T01:05:23.814Z,989.68
2023-03-12T01:06:23.812Z,989.69
2023-03-12T01:07:23.811Z,989.67
2023-03-12T01:08:23.823Z,989.61
2023-03-12T01:09:23.788Z,989.69
2023-03-12T01:10:23.798Z,989.70
2023-03-12T01:11:23.775Z,989.67
2023-03-12T01:12:23.765Z,989.61
2023-03-12T01:13:23.778Z,989.63
2023-03-12T01:14:23.751Z,989.65
2023-03-12T01:15:23.746Z,989.58
2023-03-12T01:16:23.800Z,989.62
2023-03-12T01:17:23.725Z,989.57
2023-03-12T01:18:23.748Z,989.56
2023-03-12T01:19:23.834Z,989.56
2023-03-12T01:20:23.709Z,989.56
2023-03-12T01:21:23.693Z,989.52
2023-03-12T01:22:24.688Z,989.51
2023-03-12T01:23:23.707Z,989.53
2023-03-12T01:24:23.676Z,989.48
2023-03-12T01:25:23.670Z,989.48
2023-03-12T01:26:23.658Z,989.49
2023-03-12T01:27:23.660Z,989.47
2023-03-12T01:28:23.681Z,989.51
2023-03-12T01:29:23.640Z,989.46
2023-03-12T01:30:23.674Z,989.47
2023-03-12T01:31:23.664Z,989.45
2023-03-12T01:32:23.675Z,989.43
2023-03-12T01:33:23.645Z,989.52
2023-03-12T01:34:23.613Z,989.46
2023-03-12T01:35:23.635Z,989.47
2023-03-12T01:36:23.634Z,989.48
2023-03-12T01:37:23.583Z,989.47
2023-03-12T01:38:23.601Z,989.48
2023-03-12T01:39:23.568Z,989.47
2023-03-12T01:40:23.559Z,989.44
2023-03-12T01:41:23.560Z,989.50
2023-03-12T01:42:23.556Z,989.47
2023-03-12T01:43:23.557Z,989.49
2023-03-12T01:44:23.529Z,989.54
2023-03-12T01:45:23.526Z,989.48
2023-03-12T01:46:23.512Z,989.47
2023-03-12T01:47:23.499Z,989.53
2023-03-12T01:48:23.520Z,989.47
2023-03-12T01:49:23.486Z,989.46
2023-03-12T01:50:23.481Z,989.44
2023-03-12T01:51:23.474Z,989.50
2023-03-12T01:52:23.459Z,989.49
2023-03-12T01:53:23.485Z,989.54
2023-03-12T01:54:23.452Z,989.47
2023-03-12T01:55:23.448Z,989.43
2023-03-12T01:56:23.435Z,989.40
2023-03-12T01:57:23.425Z,989.39
2023-03-12T01:58:23.424Z,989.35
2023-03-12T01:59:23.447Z,989.33
2023-03-12T02:00:23.420Z,989.41
2023-03-12T02:01:23.447Z,989.44
2023-03-12T02:02:23.386Z,989.42
2023-03-12T02:03:23.385Z,989.36
2023-03-12T02:04:23.513Z,989.33
2023-03-12T02:05:23.381Z,989.35
2023-03-12T02:06:23.367Z,989.37
2023-03-12T02:07:23.353Z,989.35
2023-03-12T02:08:23.351Z,989.36
2023-03-12T02:09:23.365Z,989.37
2023-03-12T02:10:23.340Z,989.35
2023-03-12T02:11:23.322Z,989.35
2023-03-12T02:12:23.304Z,989.30
2023-03-12T02:13:24.318Z,989.35
2023-03-12T02:14:23.325Z,989.39
2023-03-12T02:15:23.290Z,989.40
2023-03-12T02:16:23.330Z,989.30
2023-03-12T02:17:23.276Z,989.27
2023-03-12T02:18:23.269Z,989.25
2023-03-12T02:19:23.282Z,989.29
2023-03-12T02:20:23.255Z,989.32
2023-03-12T02:21:23.244Z,989.30
2023-03-12T02:22:23.241Z,989.26
2023-03-12T02:23:24.234Z,989.25
2023-03-12T02:24:23.256Z,989.28
2023-03-12T02:25:23.216Z,989.32
2023-03-12T02:26:23.216Z,989.34
2023-03-12T02:27:23.206Z,989.28
2023-03-12T02:28:23.195Z,989.37
2023-03-12T02:29:23.220Z,989.33
2023-03-12T02:30:23.175Z,989.33
2023-03-12T02:31:23.224Z,989.31
2023-03-12T02:32:23.256Z,989.34
2023-03-12T02:33:23.167Z,989.33
2023-03-12T02:34:23.186Z,989.33
2023-03-12T02:35:23.135Z,989.32
2023-03-12T02:36:23.138Z,989.30
2023-03-12T02:37:23.126Z,989.29
2023-03-12T02:38:23.115Z,989.27
2023-03-12T02:39:23.129Z,989.24
2023-03-12T02:40:23.102Z,989.28
2023-03-12T02:41:23.103Z,989.29
2023-03-12T02:42:23.089Z,989.32
2023-03-12T02:43:23.086Z,989.31
2023-03-12T02:44:23.107Z,989.30
2023-03-12T02:45:23.068Z,989.31
2023-03-12T02:46:23.145Z,989.35
2023-03-12T02:47:23.056Z,989.33
2023-03-12T02:48:23.047Z,989.29
2023-03-12T02:49:23.073Z,989.28
2023-03-12T02:50:23.038Z,989.34
2023-03-12T02:51:23.021Z,989.30
2023-03-12T02:52:23.030Z,989.28
2023-03-12T02:53:23.012Z,989.32
2023-03-12T02:54:23.032Z,989.28
2023-03-12T02:55:22.998Z,989.33
2023-03-12T02:56:22.997Z,989.25
2023-03-12T02:57:22.975Z,989.31
2023-03-12T02:58:22.970Z,989.26
2023-03-12T02:59:22.999Z,989.33
2023-03-12T03:00:22.952Z,989.25
2023-03-12T03:01:23.033Z,989.31
2023-03-12T03:02:22.937Z,989.34
2023-03-12T03:03:22.932Z,989.32
2023-03-12T03:04:22.981Z,989.30
2023-03-12T03:05:22.913Z,989.29
2023-03-12T03:06:22.914Z,989.34
2023-03-12T03:07:22.900Z,989.40
2023-03-12T03:08:22.905Z,989.29
2023-03-12T03:09:22.913Z,989.33
2023-03-12T03:10:22.876Z,989.29
2023-03-12T03:11:22.873Z,989.27
2023-03-12T03:12:22.870Z,989.31
2023-03-12T03:13:22.853Z,989.26
2023-03-12T03:14:22.872Z,989.31
2023-03-12T03:15:22.838Z,989.32
2023-03-12T03:16:22.838Z,989.31
2023-03-12T03:17:22.832Z,989.34
2023-03-12T03:18:22.823Z,989.33
2023-03-12T03:19:22.838Z,989.39
2023-03-12T03:20:22.811Z,989.33
2023-03-12T03:21:22.823Z,989.30
2023-03-12T03:22:22.819Z,989.32
2023-03-12T03:23:22.790Z,989.36
2023-03-12T03:24:22.813Z,989.41
2023-03-12T03:25:22.774Z,989.31
2023-03-12T03:26:22.794Z,989.34
2023-03-12T03:27:22.759Z,989.36
2023-03-12T03:28:22.759Z,989.37
2023-03-12T03:29:22.790Z,989.35
2023-03-12T03:30:22.754Z,989.36
2023-03-12T03:31:22.777Z,989.33
2023-03-12T03:32:22.785Z,989.29
2023-03-12T03:33:22.721Z,989.32
2023-03-12T03:34:22.730Z,989.30
2023-03-12T03:35:22.706Z,989.26
2023-03-12T03:36:22.691Z,989.27
2023-03-12T03:37:22.688Z,989.22
2023-03-12T03:38:22.682Z,989.22
2023-03-12T03:39:22.700Z,989.25
2023-03-12T03:40:22.661Z,989.23
2023-03-12T03:41:22.652Z,989.21
2023-03-12T03:42:22.651Z,989.21
2023-03-12T03:43:22.647Z,989.13
2023-03-12T03:44:22.663Z,989.13
2023-03-12T03:45:22.630Z,989.19
2023-03-12T03:46:22.650Z,989.17
2023-03-12T03:47:23.603Z,989.25
2023-03-12T03:48:22.598Z,989.20
2023-03-12T03:49:22.626Z,989.24
2023-03-12T03:50:22.592Z,989.21
2023-03-12T03:51:22.580Z,989.11
2023-03-12T03:52:22.571Z,989.29
2023-03-12T03:53:22.574Z,989.20
2023-03-12T03:54:22.566Z,989.27
2023-03-12T03:55:22.581Z,989.25
2023-03-12T03:56:22.543Z,989.34
2023-03-12T03:57:22.546Z,989.26
2023-03-12T03:58:22.532Z,989.26
2023-03-12T03:59:22.525Z,989.22
2023-03-12T04:00:22.551Z,989.26
2023-03-12T04:01:22.505Z,989.22
2023-03-12T04:02:22.501Z,989.21
2023-03-12T04:03:22.530Z,989.23
2023-03-12T04:04:22.487Z,989.26
2023-03-12T04:05:22.520Z,989.29
2023-03-12T04:06:22.488Z,989.26
2023-03-12T04:07:22.471Z,989.21
2023-03-12T04:08:22.448Z,989.23
2023-03-12T04:09:23.449Z,989.20
2023-03-12T04:10:22.474Z,989.23
2023-03-12T04:11:22.442Z,989.13
2023-03-12T04:12:22.433Z,989.14
2023-03-12T04:13:22.422Z,989.20
2023-03-12T04:14:22.419Z,989.15
2023-03-12T04:15:22.434Z,989.13
2023-03-12T04:16:22.433Z,989.04
2023-03-12T04:17:22.396Z,989.08
2023-03-12T04:18:22.451Z,989.07
2023-03-12T04:19:22.386Z,989.04
2023-03-12T04:20:22.399Z,989.07
2023-03-12T04:21:22.366Z,989.09
2023-03-12T04:22:22.342Z,989.01
2023-03-12T04:23:23.344Z,989.00
2023-03-12T04:24:22.350Z,989.00
2023-03-12T04:25:22.369Z,989.03
2023-03-12T04:26:22.324Z,989.01
2023-03-12T04:27:22.321Z,989.00
2023-03-12T04:28:22.310Z,989.08
2023-03-12T04:29:22.306Z,989.09
2023-03-12T04:30:22.322Z,989.08
2023-03-12T04:31:22.375Z,989.06
2023-03-12T04:32:22.289Z,989.00
2023-03-12T04:33:22.283Z,989.08
2023-03-12T04:34:22.268Z,989.05
2023-03-12T04:35:22.282Z,989.02
2023-03-12T04:36:22.254Z,988.97
2023-03-12T04:37:22.246Z,988.96
2023-03-12T04:38:22.244Z,989.01
2023-03-12T04:39:22.237Z,989.03
2023-03-12T04:40:22.253Z,989.04
2023-03-12T04:41:22.214Z,989.04
2023-03-12T04:42:22.210Z,988.99
2023-03-12T04:43:22.206Z,988.97
2023-03-12T04:44:22.204Z,988.96
2023-03-12T04:45:22.211Z,988.98
2023-03-12T04:46:22.230Z,988.98
2023-03-12T04:47:22.183Z,989.01
2023-03-12T04:48:22.170Z,989.00
2023-03-12T04:49:22.153Z,989.05
2023-03-12T04:50:22.186Z,989.00
2023-03-12T04:51:22.153Z,989.05
2023-03-12T04:52:22.140Z,989.04
2023-03-12T04:53:22.199Z,989.01
2023-03-12T04:54:22.127Z,989.02
2023-03-12T04:55:22.146Z,989.02
2023-03-12T04:56:22.115Z,989.03
2023-03-12T04:57:22.106Z,989.09
2023-03-12T04:58:22.098Z,988.94
2023-03-12T04:59:22.087Z,989.03
2023-03-12T05:00:22.109Z,989.02
2023-03-12T05:01:22.077Z,988.97
2023-03-12T05:02:22.071Z,988.94
2023-03-12T05:03:22.063Z,988.97
2023-03-12T05:04:22.055Z,988.97
2023-03-12T05:05:22.068Z,988.90
2023-03-12T05:06:22.056Z,988.98
2023-03-12T05:07:22.029Z,989.02
2023-03-12T05:08:22.032Z,989.00
2023-03-12T05:09:22.017Z,988.96
2023-03-12T05:10:22.028Z,988.98
2023-03-12T05:11:22.003Z,988.91
2023-03-12T05:12:21.994Z,988.82
2023-03-12T05:13:21.992Z,988.79
2023-03-12T05:14:21.976Z,988.87
2023-03-12T05:15:22.001Z,988.91
2023-03-12T05:16:22.028Z,988.86
2023-03-12T05:17:21.959Z,988.96
2023-03-12T05:18:21.955Z,988.87
2023-03-12T05:19:21.954Z,988.85
2023-03-12T05:20:21.984Z,988.85
2023-03-12T05:21:21.933Z,988.85
2023-03-12T05:22:21.914Z,988.82
2023-03-12T05:23:21.908Z,988.79
2023-03-12T05:24:21.909Z,988.76
2023-03-12T05:25:21.937Z,988.73
2023-03-12T05:26:21.903Z,988.77
2023-03-12T05:27:21.880Z,988.71
2023-03-12T05:28:21.870Z,988.69
2023-03-12T05:29:21.873Z,988.67
2023-03-12T05:30:21.880Z,988.67
2023-03-12T05:31:21.917Z,988.66
2023-03-12T05:32:21.888Z,988.69
2023-03-12T05:33:21.838Z,988.73
2023-03-12T05:34:21.818Z,988.73
2023-03-12T05:35:21.844Z,988.68
2023-03-12T05:36:21.821Z,988.68
2023-03-12T05:37:21.802Z,988.66
2023-03-12T05:38:21.797Z,988.75
2023-03-12T05:39:21.774Z,988.73
2023-03-12T05:40:22.806Z,988.75
2023-03-12T05:41:21.776Z,988.75
2023-03-12T05:42:21.765Z,988.75
2023-03-12T05:43:21.754Z,988.71
2023-03-12T05:44:21.759Z,988.72
2023-03-12T05:45:21.763Z,988.72
2023-03-12T05:46:21.733Z,988.77
2023-03-12T05:47:21.722Z,988.79
2023-03-12T05:48:21.720Z,988.79
2023-03-12T05:49:21.716Z,988.75
2023-03-12T05:50:21.745Z,988.75
2023-03-12T05:51:21.714Z,988.68
2023-03-12T05:52:21.692Z,988.71
2023-03-12T05:53:21.690Z,988.74
2023-03-12T05:54:21.672Z,988.77
2023-03-12T05:55:21.687Z,988.72
2023-03-12T05:56:21.662Z,988.73
2023-03-12T05:57:21.649Z,988.78
2023-03-12T05:58:21.645Z,988.70
2023-03-12T05:59:21.623Z,988.73
2023-03-12T06:00:22.656Z,988.64
2023-03-12T06:01:21.621Z,988.69
2023-03-12T06:02:21.716Z,988.64
2023-03-12T06:03:21.620Z,988.70
2023-03-12T06:04:21.599Z,988.69
2023-03-12T06:05:21.633Z,988.65
2023-03-12T06:06:21.581Z,988.65
2023-03-12T06:07:21.569Z,988.62
2023-03-12T06:08:21.567Z,988.66
2023-03-12T06:09:21.557Z,988.61
2023-03-12T06:10:21.587Z,988.59
2023-03-12T06:11:21.538Z,988.55
2023-03-12T06:12:21.546Z,988.60
2023-03-12T06:13:21.528Z,988.65
2023-03-12T06:14:21.514Z,988.64
2023-03-12T06:15:21.510Z,988.64
2023-03-12T06:16:21.617Z,988.64
2023-03-12T06:17:21.505Z,988.65
2023-03-12T06:18:21.490Z,988.71
2023-03-12T06:19:21.486Z,988.71
2023-03-12T06:20:21.498Z,988.68
2023-03-12T06:21:21.490Z,988.69
2023-03-12T06:22:21.460Z,988.68
2023-03-12T06:23:21.697Z,988.59
2023-03-12T06:24:22.448Z,988.64
2023-03-12T06:25:21.434Z,988.61
2023-03-12T06:26:21.466Z,988.62
2023-03-12T06:27:21.415Z,988.63
2023-03-12T06:28:21.414Z,988.60
2023-03-12T06:29:21.405Z,988.53
2023-03-12T06:30:21.411Z,988.55
2023-03-12T06:31:21.456Z,988.56
2023-03-12T06:32:21.409Z,988.63
2023-03-12T06:33:21.372Z,988.62
2023-03-12T06:34:21.371Z,988.61
2023-03-12T06:35:21.394Z,988.57
2023-03-12T06:36:21.367Z,988.52
2023-03-12T06:37:21.346Z,988.56
2023-03-12T06:38:21.338Z,988.53
2023-03-12T06:39:21.317Z,988.54
2023-03-12T06:40:22.318Z,988.59
2023-03-12T06:41:21.336Z,988.61
2023-03-12T06:42:21.303Z,988.53
2023-03-12T06:43:21.295Z,988.59
2023-03-12T06:44:21.286Z,988.56
2023-03-12T06:45:21.283Z,988.58
2023-03-12T06:46:21.326Z,988.59
2023-03-12T06:47:21.268Z,988.61
2023-03-12T06:48:21.266Z,988.55
2023-03-12T06:49:21.264Z,988.58
2023-03-12T06:50:21.244Z,988.62
2023-03-12T06:51:21.262Z,988.65
2023-03-12T06:52:21.226Z,988.64
2023-03-12T06:53:21.229Z,988.66
2023-03-12T06:54:21.217Z,988.65
2023-03-12T06:55:21.208Z,988.66
2023-03-12T06:56:21.223Z,988.64
2023-03-12T06:57:21.195Z,988.66
2023-03-12T06:58:21.187Z,988.56
2023-03-12T06:59:21.178Z,988.58
2023-03-12T07:00:21.172Z,988.64
2023-03-12T07:01:21.186Z,988.59
2023-03-12T07:02:21.236Z,988.57
2023-03-12T07:03:21.147Z,988.57
2023-03-12T07:04:21.146Z,988.55
2023-03-12T07:05:21.171Z,988.53
2023-03-12T07:06:21.154Z,988.46
2023-03-12T07:07:21.121Z,988.55
2023-03-12T07:08:21.114Z,988.55
2023-03-12T07:09:21.105Z,988.57
2023-03-12T07:10:21.098Z,988.54
2023-03-12T07:11:21.116Z,988.51
2023-03-12T07:12:21.090Z,988.55
2023-03-12T07:13:21.080Z,988.50
2023-03-12T07:14:21.066Z,988.40
2023-03-12T07:15:21.059Z,988.40
2023-03-12T07:16:21.111Z,988.38
2023-03-12T07:17:21.064Z,988.39
2023-03-12T07:18:21.043Z,988.36
2023-03-12T07:19:21.035Z,988.45
2023-03-12T07:20:21.028Z,988.37
2023-03-12T07:21:21.044Z,988.40
2023-03-12T07:22:21.006Z,988.42
2023-03-12T07:23:21.006Z,988.49
2023-03-12T07:24:20.997Z,988.47
2023-03-12T07:25:21.012Z,988.48
2023-03-12T07:26:21.043Z,988.41
2023-03-12T07:27:20.968Z,988.47
2023-03-12T07:28:20.961Z,988.43
2023-03-12T07:29:20.966Z,988.40
2023-03-12T07:30:20.944Z,988.30
2023-03-12T07:31:21.012Z,988.26
2023-03-12T07:32:20.969Z,988.25
2023-03-12T07:33:21.006Z,988.15
2023-03-12T07:34:21.030Z,988.19
2023-03-12T07:35:21.013Z,988.18
2023-03-12T07:36:21.024Z,988.19
2023-03-12T07:37:20.893Z,988.19
2023-03-12T07:38:20.913Z,988.20
2023-03-12T07:39:20.888Z,988.12
2023-03-12T07:40:20.865Z,988.09
2023-03-12T07:41:20.999Z,988.12
2023-03-12T07:42:20.967Z,988.08
2023-03-12T07:43:21.883Z,988.08
2023-03-12T07:44:21.835Z,988.04
2023-03-12T07:45:20.864Z,988.07
2023-03-12T07:46:20.884Z,987.99
2023-03-12T07:47:23.959Z,987.99
2023-03-12T07:48:21.859Z,987.95
2023-03-12T07:49:20.798Z,988.00
2023-03-12T07:50:20.881Z,988.03
2023-03-12T07:51:20.807Z,988.08
2023-03-12T07:52:20.854Z,988.11
2023-03-12T07:53:20.761Z,988.06
2023-03-12T07:54:20.914Z,988.08
2023-03-12T07:55:20.844Z,988.04
2023-03-12T07:56:20.851Z,988.03
2023-03-12T07:57:20.753Z,988.00
2023-03-12T07:58:20.799Z,988.03
2023-03-12T07:59:21.760Z,987.97
2023-03-12T08:00:20.759Z,987.93
2023-03-12T08:01:20.768Z,988.04
2023-03-12T08:02:20.801Z,988.00
2023-03-12T08:03:20.992Z,987.95
2023-03-12T08:04:20.733Z,987.95
2023-03-12T08:05:20.673Z,987.91
2023-03-12T08:06:20.813Z,987.95
2023-03-12T08:07:20.744Z,987.92
2023-03-12T08:08:20.660Z,987.87
2023-03-12T08:09:20.644Z,987.85
2023-03-12T08:10:20.698Z,987.78
2023-03-12T08:11:20.646Z,987.86
2023-03-12T08:12:20.644Z,987.86
2023-03-12T08:13:20.675Z,987.86
2023-03-12T08:14:20.610Z,987.88
2023-03-12T08:15:20.588Z,987.93
2023-03-12T08:16:20.680Z,987.87
2023-03-12T08:17:20.574Z,987.87
2023-03-12T08:18:20.568Z,987.88
2023-03-12T08:19:20.562Z,987.92
2023-03-12T08:20:20.557Z,987.92
2023-03-12T08:21:20.567Z,987.94
2023-03-12T08:22:20.539Z,987.98
2023-03-12T08:23:20.532Z,987.92
2023-03-12T08:24:20.529Z,987.91
2023-03-12T08:25:20.556Z,987.91
2023-03-12T08:26:20.533Z,987.91
2023-03-12T08:27:20.494Z,987.85
2023-03-12T08:28:20.488Z,987.85
2023-03-12T08:29:20.487Z,987.84
2023-03-12T08:30:20.479Z,987.83
2023-03-12T08:31:20.515Z,987.77
2023-03-12T08:32:20.557Z,987.72
2023-03-12T08:33:20.458Z,987.68
2023-03-12T08:34:20.450Z,987.71
2023-03-12T08:35:20.439Z,987.72
2023-03-12T08:36:22.378Z,987.67
2023-03-12T08:37:21.426Z,987.70
2023-03-12T08:38:20.421Z,987.73
2023-03-12T08:39:20.408Z,987.70
2023-03-12T08:40:20.405Z,987.76
2023-03-12T08:41:20.423Z,987.72
2023-03-12T08:42:20.392Z,987.76
2023-03-12T08:43:20.390Z,987.75
2023-03-12T08:44:20.390Z,987.78
2023-03-12T08:45:20.373Z,987.82
2023-03-12T08:46:20.420Z,987.74
2023-03-12T08:47:20.352Z,987.73
2023-03-12T08:48:20.339Z,987.71
2023-03-12T08:49:20.332Z,987.69
2023-03-12T08:50:20.330Z,987.69
2023-03-12T08:51:20.352Z,987.69
2023-03-12T08:52:20.319Z,987.71
2023-03-12T08:53:20.313Z,987.69
2023-03-12T08:54:20.300Z,987.72
2023-03-12T08:55:20.292Z,987.70
2023-03-12T08:56:20.324Z,987.67
2023-03-12T08:57:20.280Z,987.75
2023-03-12T08:58:20.265Z,987.63
2023-03-12T08:59:20.261Z,987.68
2023-03-12T09:00:20.249Z,987.63
2023-03-12T09:01:20.269Z,987.61
2023-03-12T09:02:20.242Z,987.60
2023-03-12T09:03:20.259Z,987.59
2023-03-12T09:04:20.295Z,987.57
2023-03-12T09:05:20.213Z,987.54
2023-03-12T09:06:20.232Z,987.61
2023-03-12T09:07:20.204Z,987.61
2023-03-12T09:08:20.193Z,987.57
2023-03-12T09:09:20.181Z,987.61
2023-03-12T09:10:20.178Z,987.64
2023-03-12T09:11:20.168Z,987.66
2023-03-12T09:12:20.185Z,987.68
2023-03-12T09:13:20.156Z,987.66
2023-03-12T09:15:00.976Z,987.67
2023-03-12T09:15:22.133Z,987.65
2023-03-12T09:16:20.144Z,987.61
2023-03-12T09:17:20.146Z,987.60
2023-03-12T09:18:20.116Z,987.63
2023-03-12T09:19:20.103Z,987.64
2023-03-12T09:20:20.109Z,987.59
2023-03-12T09:21:20.084Z,987.57
2023-03-12T09:22:20.099Z,987.59
2023-03-12T09:23:20.070Z,987.61
2023-03-12T09:24:20.063Z,987.60
2023-03-12T09:25:20.051Z,987.59
2023-03-12T09:26:20.039Z,987.58
2023-03-12T09:27:20.059Z,987.58
2023-03-12T09:28:20.026Z,987.58
2023-03-12T09:29:20.018Z,987.59
2023-03-12T09:30:20.122Z,987.53
2023-03-12T09:31:20.051Z,987.51
2023-03-12T09:32:20.058Z,987.50
2023-03-12T09:33:19.993Z,987.53
2023-03-12T09:34:19.982Z,987.54
2023-03-12T09:35:19.970Z,987.53
2023-03-12T09:36:19.957Z,987.49
2023-03-12T09:37:22.393Z,987.51
2023-03-12T09:38:19.944Z,987.52
2023-03-12T09:39:19.935Z,987.50
2023-03-12T09:40:19.928Z,987.49
2023-03-12T09:41:19.908Z,987.47
2023-03-12T09:42:20.939Z,987.42
2023-03-12T09:43:19.910Z,987.49
2023-03-12T09:44:19.897Z,987.49
2023-03-12T09:45:19.893Z,987.39
2023-03-12T09:46:19.933Z,987.43
2023-03-12T09:47:19.901Z,987.48
2023-03-12T09:48:19.865Z,987.44
2023-03-12T09:49:19.868Z,987.42
2023-03-12T09:50:19.850Z,987.41
2023-03-12T09:51:19.840Z,987.34
2023-03-12T09:52:19.857Z,987.31
2023-03-12T09:53:19.829Z,987.32
2023-03-12T09:54:19.819Z,987.36
2023-03-12T09:55:19.817Z,987.27
2023-03-12T09:56:19.800Z,987.23
2023-03-12T09:57:19.831Z,987.22
2023-03-12T09:58:19.787Z,987.17
2023-03-12T09:59:19.776Z,987.19
2023-03-12T10:00:19.778Z,987.19
2023-03-12T10:01:19.764Z,987.23
2023-03-12T10:02:19.784Z,987.21
2023-03-12T10:03:19.810Z,987.20
2023-03-12T10:04:19.781Z,987.19
2023-03-12T10:05:19.787Z,987.15
2023-03-12T10:06:19.781Z,987.13
2023-03-12T10:07:19.743Z,987.06
2023-03-12T10:08:26.272Z,987.08
2023-03-12T10:09:21.701Z,986.94
2023-03-12T10:10:19.698Z,987.01
2023-03-12T10:11:19.711Z,987.04
2023-03-12T10:12:19.734Z,987.00
2023-03-12T10:13:19.676Z,987.05
2023-03-12T10:14:23.856Z,987.03
2023-03-12T10:15:20.652Z,987.07
2023-03-12T10:16:19.681Z,987.02
2023-03-12T10:17:19.661Z,987.04
2023-03-12T10:18:19.707Z,987.03
2023-03-12T10:19:19.621Z,987.00
2023-03-12T10:20:19.616Z,986.95
2023-03-12T10:21:19.604Z,986.93
2023-03-12T10:22:19.625Z,986.90
2023-03-12T10:23:19.581Z,986.91
2023-03-12T10:24:20.583Z,986.92
2023-03-12T10:25:19.595Z,986.89
2023-03-12T10:26:19.573Z,986.92
2023-03-12T10:27:19.585Z,986.90
2023-03-12T10:28:19.559Z,987.00
2023-03-12T10:29:19.544Z,986.91
2023-03-12T10:30:19.541Z,986.92
2023-03-12T10:31:19.577Z,986.94
2023-03-12T10:32:19.575Z,986.93
2023-03-12T10:33:19.515Z,986.95
2023-03-12T10:34:19.507Z,986.95
2023-03-12T10:35:21.785Z,986.83
2023-03-12T10:36:20.492Z,986.86
2023-03-12T10:37:19.515Z,986.79
2023-03-12T10:38:19.481Z,986.83
2023-03-12T10:39:19.469Z,986.78
2023-03-12T10:40:19.486Z,986.84
2023-03-12T10:41:19.452Z,986.78
2023-03-12T10:42:19.503Z,986.82
2023-03-12T10:43:19.446Z,986.90
2023-03-12T10:44:19.435Z,986.87
2023-03-12T10:45:19.424Z,986.87
2023-03-12T10:46:19.439Z,986.89
2023-03-12T10:47:19.447Z,986.87
2023-03-12T10:48:19.400Z,986.87
2023-03-12T10:49:19.391Z,986.92
2023-03-12T10:50:19.381Z,986.86
2023-03-12T10:51:20.392Z,986.87
2023-03-12T10:52:19.368Z,986.74
2023-03-12T10:53:19.386Z,986.76
2023-03-12T10:54:19.354Z,986.85
2023-03-12T10:55:19.352Z,986.83
2023-03-12T10:56:19.363Z,986.83
2023-03-12T10:57:19.370Z,986.81
2023-03-12T10:58:19.325Z,986.80
2023-03-12T10:59:19.327Z,986.84
2023-03-12T11:00:19.310Z,986.76
2023-03-12T11:01:19.346Z,986.85
2023-03-12T11:02:19.302Z,986.87
2023-03-12T11:03:19.329Z,986.88
2023-03-12T11:04:19.299Z,986.86
2023-03-12T11:05:19.283Z,986.94
2023-03-12T11:06:19.311Z,986.95
2023-03-12T11:07:19.259Z,986.91
2023-03-12T11:08:19.320Z,986.94
2023-03-12T11:09:19.233Z,986.92
2023-03-12T11:10:19.246Z,986.96
2023-03-12T11:11:19.225Z,986.90
2023-03-12T11:12:19.215Z,986.94
2023-03-12T11:13:19.234Z,986.96
2023-03-12T11:14:19.244Z,986.90
2023-03-12T11:15:19.200Z,986.90
2023-03-12T11:16:19.266Z,986.91
2023-03-12T11:17:19.179Z,986.89
2023-03-12T11:18:19.200Z,986.89
2023-03-12T11:19:19.164Z,986.92
2023-03-12T11:20:19.154Z,986.91
2023-03-12T11:21:19.151Z,986.93
2023-03-12T11:22:19.134Z,986.93
2023-03-12T11:23:19.157Z,986.96
2023-03-12T11:24:19.120Z,986.99
2023-03-12T11:25:19.113Z,987.04
2023-03-12T11:26:19.103Z,987.00
2023-03-12T11:27:19.099Z,987.01
2023-03-12T11:28:19.142Z,986.92
2023-03-12T11:29:19.130Z,986.99
2023-03-12T11:30:19.096Z,986.94
2023-03-12T11:31:19.157Z,986.96
2023-03-12T11:32:19.114Z,986.97
2023-03-12T11:33:19.071Z,986.91
2023-03-12T11:34:19.042Z,986.93
2023-03-12T11:35:19.063Z,986.90
2023-03-12T11:36:19.026Z,986.91
2023-03-12T11:37:19.026Z,986.79
2023-03-12T11:38:19.039Z,986.84
2023-03-12T11:39:19.009Z,986.85
2023-03-12T11:40:19.001Z,986.78
2023-03-12T11:41:18.999Z,986.80
2023-03-12T11:42:18.998Z,986.82
2023-03-12T11:43:29.247Z,986.82
2023-03-12T11:44:20.970Z,986.80
2023-03-12T11:45:18.963Z,986.79
2023-03-12T11:46:18.983Z,986.79
2023-03-12T11:47:19.004Z,986.76
2023-03-12T11:48:19.001Z,986.71
2023-03-12T11:49:18.931Z,986.77
2023-03-12T11:50:18.921Z,986.76
2023-03-12T11:51:18.917Z,986.77
2023-03-12T11:52:18.937Z,986.80
2023-03-12T11:53:18.923Z,986.84
2023-03-12T11:54:18.887Z,986.73
2023-03-12T11:55:18.891Z,986.79
2023-03-12T11:56:18.876Z,986.73
2023-03-12T11:57:18.872Z,986.73
2023-03-12T11:58:18.890Z,986.71
2023-03-12T11:59:18.853Z,986.73
2023-03-12T12:00:19.906Z,986.68
2023-03-12T12:01:18.837Z,986.65
2023-03-12T12:02:18.881Z,986.47
2023-03-12T12:03:18.874Z,986.51
2023-03-12T12:04:18.821Z,986.57
2023-03-12T12:05:18.810Z,986.49
2023-03-12T12:06:18.811Z,986.57
2023-03-12T12:07:18.798Z,986.53
2023-03-12T12:08:18.818Z,986.52
2023-03-12T12:09:18.778Z,986.46
2023-03-12T12:10:18.769Z,986.56
2023-03-12T12:11:18.767Z,986.43
2023-03-12T12:12:18.750Z,986.49
2023-03-12T12:13:18.743Z,986.51
2023-03-12T12:14:18.779Z,986.46
2023-03-12T12:15:18.732Z,986.43
2023-03-12T12:16:18.744Z,986.40
2023-03-12T12:17:18.721Z,986.41
2023-03-12T12:18:18.715Z,986.41
2023-03-12T12:19:18.740Z,986.45
2023-03-12T12:20:18.801Z,986.50
2023-03-12T12:21:18.688Z,986.51
2023-03-12T12:22:18.674Z,986.44
2023-03-12T12:23:18.689Z,986.42
2023-03-12T12:24:18.678Z,986.47
2023-03-12T12:25:18.654Z,986.40
2023-03-12T12:26:18.640Z,986.40
2023-03-12T12:27:18.634Z,986.43
2023-03-12T12:28:18.633Z,986.40